KUIN/UIN METAR and TAF weather

Enter ICAO airport designator
Station Type Date Time Source
KUIN METAR 2020/09/22 23:54 UTC NOAA

KUIN 222354Z AUTO 16005KT 10SM CLR 21/13 A3010 RMK AO2 SLP189 T02110128 10250 20211 56006


Station Type Date Time Source
KUIN Decoded METAR 2020/09/22 23:54 UTC NOAA

QUINCY MUNI. BALDWIN FIELD, IL, United States (KUIN) 39-56N 091-12W
Sep 22, 2020 - 07:54 PM EDT / 2020.09.22 2354 UTC
Wind: from the SSE (160 degrees) at 6 MPH (5 KT):0
Visibility: 10 mile(s):0
Sky conditions: clear
Temperature: 70.0 F (21.1 C)
Dew Point: 55.0 F (12.8 C)
Relative Humidity: 59%
Pressure (altimeter): 30.1 in. Hg (1019 hPa)
Pressure tendency: 0.02 inches (0.6 hPa) lower than three hours ago
ob: KUIN 222354Z AUTO 16005KT 10SM CLR 21/13 A3010 RMK AO2 SLP189 T02110128 10250 20211 56006
cycle: 0

Station Type Date Time Source
KUIN TAF 2020/09/22 18:22 UTC NOAA

TAF KUIN 221720Z 2218/2318 18007KT P6SM SCT250
FM231200 VRB03KT P6SM BKN045

Example: see airport list